sensor_id;sensor_type;location;lat;lon;timestamp;pressure;altitude;pressure_sealevel;temperature;humidity
69971;BME280;57301;50.328;8.542;2023-11-21T00:01:03;97815.66;;;8.44;94.21
69971;BME280;57301;50.328;8.542;2023-11-21T00:03:31;97820.53;;;8.31;95.00
69971;BME280;57301;50.328;8.542;2023-11-21T00:05:58;97810.97;;;8.38;94.81
69971;BME280;57301;50.328;8.542;2023-11-21T00:08:24;97821.78;;;8.37;95.52
69971;BME280;57301;50.328;8.542;2023-11-21T00:10:51;97814.22;;;8.32;95.41
69971;BME280;57301;50.328;8.542;2023-11-21T00:13:17;97815.06;;;8.58;93.98
69971;BME280;57301;50.328;8.542;2023-11-21T00:15:44;97817.69;;;8.50;95.47
69971;BME280;57301;50.328;8.542;2023-11-21T00:18:11;97819.75;;;8.65;94.40
69971;BME280;57301;50.328;8.542;2023-11-21T00:20:37;97816.91;;;8.58;93.98
69971;BME280;57301;50.328;8.542;2023-11-21T00:23:04;97814.97;;;8.68;94.21
69971;BME280;57301;50.328;8.542;2023-11-21T00:25:30;97815.06;;;8.58;94.06
69971;BME280;57301;50.328;8.542;2023-11-21T00:27:58;97821.16;;;8.43;95.28
69971;BME280;57301;50.328;8.542;2023-11-21T00:30:24;97810.81;;;8.66;94.65
69971;BME280;57301;50.328;8.542;2023-11-21T00:32:51;97817.03;;;8.48;94.80
69971;BME280;57301;50.328;8.542;2023-11-21T00:35:18;97818.66;;;8.41;95.63
69971;BME280;57301;50.328;8.542;2023-11-21T00:37:44;97822.75;;;8.36;96.82
69971;BME280;57301;50.328;8.542;2023-11-21T00:40:12;97819.38;;;8.33;96.75
69971;BME280;57301;50.328;8.542;2023-11-21T00:42:38;97816.13;;;8.66;94.80
69971;BME280;57301;50.328;8.542;2023-11-21T00:45:06;97809.06;;;8.48;95.41
69971;BME280;57301;50.328;8.542;2023-11-21T00:47:33;97819.94;;;8.37;95.70
69971;BME280;57301;50.328;8.542;2023-11-21T00:50:00;97816.97;;;8.22;96.80
69971;BME280;57301;50.328;8.542;2023-11-21T00:52:26;97819.34;;;8.25;97.52
69971;BME280;57301;50.328;8.542;2023-11-21T00:54:53;97819.81;;;8.47;96.00
69971;BME280;57301;50.328;8.542;2023-11-21T00:57:20;97823.25;;;8.65;94.93
69971;BME280;57301;50.328;8.542;2023-11-21T00:59:46;97820.09;;;8.61;94.71
69971;BME280;57301;50.328;8.542;2023-11-21T01:02:13;97814.00;;;8.77;94.00
69971;BME280;57301;50.328;8.542;2023-11-21T01:04:39;97818.34;;;8.78;93.78
69971;BME280;57301;50.328;8.542;2023-11-21T01:07:06;97825.63;;;8.76;93.45
69971;BME280;57301;50.328;8.542;2023-11-21T01:09:32;97815.72;;;8.86;93.25
69971;BME280;57301;50.328;8.542;2023-11-21T01:11:59;97818.34;;;8.78;93.54
69971;BME280;57301;50.328;8.542;2023-11-21T01:14:26;97837.94;;;8.77;93.55
69971;BME280;57301;50.328;8.542;2023-11-21T01:16:53;97832.38;;;8.63;94.45
69971;BME280;57301;50.328;8.542;2023-11-21T01:19:20;97838.16;;;8.58;94.21
69971;BME280;57301;50.328;8.542;2023-11-21T01:21:47;97843.34;;;8.59;94.28
69971;BME280;57301;50.328;8.542;2023-11-21T01:24:13;97843.59;;;8.48;95.70
69971;BME280;57301;50.328;8.542;2023-11-21T01:26:40;97842.19;;;8.36;96.36
69971;BME280;57301;50.328;8.542;2023-11-21T01:29:07;97840.97;;;8.30;96.15
69971;BME280;57301;50.328;8.542;2023-11-21T01:31:33;97840.59;;;8.25;95.85
69971;BME280;57301;50.328;8.542;2023-11-21T01:34:00;97848.84;;;8.40;95.75
69971;BME280;57301;50.328;8.542;2023-11-21T01:36:33;97844.69;;;8.38;95.57
69971;BME280;57301;50.328;8.542;2023-11-21T01:39:00;97853.69;;;8.45;95.50
69971;BME280;57301;50.328;8.542;2023-11-21T01:41:27;97851.34;;;8.42;94.87
69971;BME280;57301;50.328;8.542;2023-11-21T01:43:55;97845.91;;;8.25;96.11
69971;BME280;57301;50.328;8.542;2023-11-21T01:46:22;97852.03;;;8.44;95.18
69971;BME280;57301;50.328;8.542;2023-11-21T01:48:51;97857.78;;;8.65;94.61
69971;BME280;57301;50.328;8.542;2023-11-21T01:51:19;97859.16;;;8.69;93.80
69971;BME280;57301;50.328;8.542;2023-11-21T01:53:46;97856.88;;;8.74;94.02
69971;BME280;57301;50.328;8.542;2023-11-21T01:56:13;97853.44;;;8.56;94.06
69971;BME280;57301;50.328;8.542;2023-11-21T01:58:40;97860.41;;;8.57;93.51
69971;BME280;57301;50.328;8.542;2023-11-21T02:01:08;97863.84;;;8.49;94.53
69971;BME280;57301;50.328;8.542;2023-11-21T02:03:36;97866.97;;;8.71;93.99
69971;BME280;57301;50.328;8.542;2023-11-21T02:06:03;97860.03;;;8.52;94.01
69971;BME280;57301;50.328;8.542;2023-11-21T02:08:30;97867.19;;;8.51;93.95
69971;BME280;57301;50.328;8.542;2023-11-21T02:10:56;97874.94;;;8.45;93.91
69971;BME280;57301;50.328;8.542;2023-11-21T02:13:24;97867.34;;;8.32;95.56
69971;BME280;57301;50.328;8.542;2023-11-21T02:15:50;97868.84;;;8.34;95.22
69971;BME280;57301;50.328;8.542;2023-11-21T02:18:18;97878.56;;;8.36;95.94
69971;BME280;57301;50.328;8.542;2023-11-21T02:20:45;97877.16;;;8.31;95.76
69971;BME280;57301;50.328;8.542;2023-11-21T02:23:13;97876.16;;;8.32;95.46
69971;BME280;57301;50.328;8.542;2023-11-21T02:25:39;97873.56;;;8.41;95.43
69971;BME280;57301;50.328;8.542;2023-11-21T02:28:06;97862.69;;;8.52;94.58
69971;BME280;57301;50.328;8.542;2023-11-21T02:30:33;97867.75;;;8.37;95.44
69971;BME280;57301;50.328;8.542;2023-11-21T02:33:00;97865.03;;;8.29;96.05
69971;BME280;57301;50.328;8.542;2023-11-21T02:35:27;97871.78;;;8.41;95.19
69971;BME280;57301;50.328;8.542;2023-11-21T02:37:54;97874.03;;;8.54;94.60
69971;BME280;57301;50.328;8.542;2023-11-21T02:40:21;97877.59;;;8.45;95.77
69971;BME280;57301;50.328;8.542;2023-11-21T02:42:48;97870.91;;;8.41;95.70
69971;BME280;57301;50.328;8.542;2023-11-21T02:45:15;97881.78;;;8.47;95.59
69971;BME280;57301;50.328;8.542;2023-11-21T02:47:44;97873.03;;;8.55;95.20
69971;BME280;57301;50.328;8.542;2023-11-21T02:50:11;97881.25;;;8.44;95.39
69971;BME280;57301;50.328;8.542;2023-11-21T02:52:38;97878.22;;;8.39;95.84
69971;BME280;57301;50.328;8.542;2023-11-21T02:55:06;97875.97;;;8.52;95.38
69971;BME280;57301;50.328;8.542;2023-11-21T02:57:36;97875.94;;;8.44;96.67
69971;BME280;57301;50.328;8.542;2023-11-21T03:00:03;97880.44;;;8.43;95.98
69971;BME280;57301;50.328;8.542;2023-11-21T03:02:29;97882.28;;;8.51;96.01
69971;BME280;57301;50.328;8.542;2023-11-21T03:04:56;97877.13;;;8.75;94.88
69971;BME280;57301;50.328;8.542;2023-11-21T03:07:23;97877.50;;;8.80;94.35
69971;BME280;57301;50.328;8.542;2023-11-21T03:09:49;97879.00;;;8.57;94.90
69971;BME280;57301;50.328;8.542;2023-11-21T03:12:16;97882.63;;;8.48;95.27
69971;BME280;57301;50.328;8.542;2023-11-21T03:14:42;97885.22;;;8.66;94.93
69971;BME280;57301;50.328;8.542;2023-11-21T03:17:09;97886.41;;;8.71;95.18
69971;BME280;57301;50.328;8.542;2023-11-21T03:19:35;97885.31;;;8.56;95.15
69971;BME280;57301;50.328;8.542;2023-11-21T03:22:02;97885.13;;;8.49;96.09
69971;BME280;57301;50.328;8.542;2023-11-21T03:24:28;97893.59;;;8.53;95.51
69971;BME280;57301;50.328;8.542;2023-11-21T03:26:55;97896.75;;;8.48;95.97
69971;BME280;57301;50.328;8.542;2023-11-21T03:29:21;97898.69;;;8.46;96.30
69971;BME280;57301;50.328;8.542;2023-11-21T03:31:48;97901.28;;;8.56;95.62
69971;BME280;57301;50.328;8.542;2023-11-21T03:34:24;97909.28;;;8.64;95.44
69971;BME280;57301;50.328;8.542;2023-11-21T03:36:53;97922.75;;;8.63;95.55
69971;BME280;57301;50.328;8.542;2023-11-21T03:39:20;97915.38;;;8.56;96.00
69971;BME280;57301;50.328;8.542;2023-11-21T03:41:48;97920.06;;;8.63;95.41
69971;BME280;57301;50.328;8.542;2023-11-21T03:44:14;97922.66;;;8.72;96.03
69971;BME280;57301;50.328;8.542;2023-11-21T03:46:41;97916.72;;;8.78;95.73
69971;BME280;57301;50.328;8.542;2023-11-21T03:49:07;97916.81;;;8.69;96.52
69971;BME280;57301;50.328;8.542;2023-11-21T03:51:34;97919.09;;;8.64;96.13
69971;BME280;57301;50.328;8.542;2023-11-21T03:54:00;97913.41;;;8.58;96.17
69971;BME280;57301;50.328;8.542;2023-11-21T03:56:27;97919.91;;;8.64;96.36
69971;BME280;57301;50.328;8.542;2023-11-21T03:58:53;97922.56;;;8.64;96.95
69971;BME280;57301;50.328;8.542;2023-11-21T04:01:21;97920.63;;;8.66;96.21
69971;BME280;57301;50.328;8.542;2023-11-21T04:03:49;97928.59;;;8.66;96.20
69971;BME280;57301;50.328;8.542;2023-11-21T04:06:16;97928.59;;;8.92;94.98
69971;BME280;57301;50.328;8.542;2023-11-21T04:08:44;97921.59;;;8.91;95.78
69971;BME280;57301;50.328;8.542;2023-11-21T04:11:12;97930.28;;;9.01;94.65
69971;BME280;57301;50.328;8.542;2023-11-21T04:13:39;97936.97;;;9.05;94.92
69971;BME280;57301;50.328;8.542;2023-11-21T04:16:07;97930.56;;;8.90;95.23
69971;BME280;57301;50.328;8.542;2023-11-21T04:18:37;97928.38;;;8.85;95.24
69971;BME280;57301;50.328;8.542;2023-11-21T04:21:05;97932.97;;;8.75;95.76
69971;BME280;57301;50.328;8.542;2023-11-21T04:23:32;97932.03;;;8.84;96.13
69971;BME280;57301;50.328;8.542;2023-11-21T04:25:58;97937.03;;;8.87;95.41
69971;BME280;57301;50.328;8.542;2023-11-21T04:28:25;97942.13;;;8.81;96.37
69971;BME280;57301;50.328;8.542;2023-11-21T04:30:51;97944.22;;;8.69;96.70
69971;BME280;57301;50.328;8.542;2023-11-21T04:33:18;97948.13;;;8.83;96.09
69971;BME280;57301;50.328;8.542;2023-11-21T04:35:45;97944.53;;;8.92;95.80
69971;BME280;57301;50.328;8.542;2023-11-21T04:38:12;97946.59;;;9.06;95.06
69971;BME280;57301;50.328;8.542;2023-11-21T04:40:38;97953.38;;;9.01;95.17
69971;BME280;57301;50.328;8.542;2023-11-21T04:43:05;97960.72;;;9.07;94.94
69971;BME280;57301;50.328;8.542;2023-11-21T04:45:32;97964.59;;;9.12;94.97
69971;BME280;57301;50.328;8.542;2023-11-21T04:47:58;97960.16;;;9.21;94.62
69971;BME280;57301;50.328;8.542;2023-11-21T04:50:25;97965.97;;;9.17;94.70
69971;BME280;57301;50.328;8.542;2023-11-21T04:52:53;97974.38;;;9.04;94.59
69971;BME280;57301;50.328;8.542;2023-11-21T04:55:20;97982.63;;;9.01;94.75
69971;BME280;57301;50.328;8.542;2023-11-21T04:57:47;97980.31;;;8.98;95.40
69971;BME280;57301;50.328;8.542;2023-11-21T05:00:14;97985.31;;;9.01;94.90
69971;BME280;57301;50.328;8.542;2023-11-21T05:02:42;97983.19;;;9.04;95.66
69971;BME280;57301;50.328;8.542;2023-11-21T05:05:12;97985.84;;;9.04;94.79
69971;BME280;57301;50.328;8.542;2023-11-21T05:07:41;97995.50;;;9.13;95.17
69971;BME280;57301;50.328;8.542;2023-11-21T05:10:09;97988.78;;;9.01;95.39
69971;BME280;57301;50.328;8.542;2023-11-21T05:12:39;97985.41;;;8.91;95.64
69971;BME280;57301;50.328;8.542;2023-11-21T05:15:07;97996.78;;;9.01;95.39
69971;BME280;57301;50.328;8.542;2023-11-21T05:17:39;98005.03;;;8.90;95.83
69971;BME280;57301;50.328;8.542;2023-11-21T05:20:10;98002.00;;;8.85;95.37
69971;BME280;57301;50.328;8.542;2023-11-21T05:22:37;98008.41;;;8.56;96.04
69971;BME280;57301;50.328;8.542;2023-11-21T05:25:05;98001.78;;;8.78;94.38
69971;BME280;57301;50.328;8.542;2023-11-21T05:27:34;98008.84;;;8.96;93.99
69971;BME280;57301;50.328;8.542;2023-11-21T05:30:04;98013.72;;;9.00;93.56
69971;BME280;57301;50.328;8.542;2023-11-21T05:32:34;98017.00;;;8.94;93.50
69971;BME280;57301;50.328;8.542;2023-11-21T05:35:01;98021.72;;;8.82;93.59
69971;BME280;57301;50.328;8.542;2023-11-21T05:37:28;98031.97;;;8.95;93.41
69971;BME280;57301;50.328;8.542;2023-11-21T05:39:55;98030.06;;;9.05;92.62
69971;BME280;57301;50.328;8.542;2023-11-21T05:42:24;98031.84;;;8.79;93.50
69971;BME280;57301;50.328;8.542;2023-11-21T05:44:50;98038.44;;;8.93;92.94
69971;BME280;57301;50.328;8.542;2023-11-21T05:47:17;98041.44;;;8.72;93.48
69971;BME280;57301;50.328;8.542;2023-11-21T05:49:44;98046.97;;;8.78;93.74
69971;BME280;57301;50.328;8.542;2023-11-21T05:52:12;98044.59;;;8.75;94.49
69971;BME280;57301;50.328;8.542;2023-11-21T05:54:38;98048.47;;;8.81;93.80
69971;BME280;57301;50.328;8.542;2023-11-21T05:57:05;98051.19;;;8.71;93.76
69971;BME280;57301;50.328;8.542;2023-11-21T05:59:31;98050.31;;;8.63;94.86
69971;BME280;57301;50.328;8.542;2023-11-21T06:01:58;98053.84;;;8.71;93.80
69971;BME280;57301;50.328;8.542;2023-11-21T06:04:25;98052.28;;;8.60;94.46
69971;BME280;57301;50.328;8.542;2023-11-21T06:06:52;98055.78;;;8.79;93.53
69971;BME280;57301;50.328;8.542;2023-11-21T06:09:19;98055.41;;;8.56;94.09
69971;BME280;57301;50.328;8.542;2023-11-21T06:11:47;98060.88;;;8.72;94.17
69971;BME280;57301;50.328;8.542;2023-11-21T06:14:13;98067.84;;;8.55;93.46
69971;BME280;57301;50.328;8.542;2023-11-21T06:16:41;98066.03;;;8.56;94.40
69971;BME280;57301;50.328;8.542;2023-11-21T06:19:08;98075.22;;;8.61;94.08
69971;BME280;57301;50.328;8.542;2023-11-21T06:21:34;98085.19;;;8.59;93.52
69971;BME280;57301;50.328;8.542;2023-11-21T06:24:01;98089.13;;;8.73;93.53
69971;BME280;57301;50.328;8.542;2023-11-21T06:26:28;98091.22;;;8.70;93.01
69971;BME280;57301;50.328;8.542;2023-11-21T06:28:55;98093.66;;;8.63;93.57
69971;BME280;57301;50.328;8.542;2023-11-21T06:31:22;98093.44;;;8.74;91.84
69971;BME280;57301;50.328;8.542;2023-11-21T06:33:49;98100.97;;;8.61;93.17
69971;BME280;57301;50.328;8.542;2023-11-21T06:36:18;98091.47;;;8.58;93.61
69971;BME280;57301;50.328;8.542;2023-11-21T06:38:44;98098.69;;;8.66;93.10
69971;BME280;57301;50.328;8.542;2023-11-21T06:41:12;98103.09;;;8.75;92.49
69971;BME280;57301;50.328;8.542;2023-11-21T06:43:42;98108.41;;;8.75;92.18
69971;BME280;57301;50.328;8.542;2023-11-21T06:46:13;98110.44;;;8.64;92.07
69971;BME280;57301;50.328;8.542;2023-11-21T06:48:42;98118.22;;;8.75;91.77
69971;BME280;57301;50.328;8.542;2023-11-21T06:51:09;98126.72;;;8.78;91.40
69971;BME280;57301;50.328;8.542;2023-11-21T06:53:37;98129.81;;;8.74;91.52
69971;BME280;57301;50.328;8.542;2023-11-21T06:56:05;98135.44;;;8.71;91.79
69971;BME280;57301;50.328;8.542;2023-11-21T06:58:41;98133.59;;;8.71;91.66
69971;BME280;57301;50.328;8.542;2023-11-21T07:01:07;98136.59;;;8.68;91.84
69971;BME280;57301;50.328;8.542;2023-11-21T07:03:34;98140.03;;;8.78;91.61
69971;BME280;57301;50.328;8.542;2023-11-21T07:06:01;98143.97;;;8.74;91.33
69971;BME280;57301;50.328;8.542;2023-11-21T07:08:27;98135.81;;;8.58;92.34
69971;BME280;57301;50.328;8.542;2023-11-21T07:10:54;98145.94;;;8.72;92.07
69971;BME280;57301;50.328;8.542;2023-11-21T07:13:20;98151.25;;;8.72;92.29
69971;BME280;57301;50.328;8.542;2023-11-21T07:15:48;98167.56;;;8.77;92.37
69971;BME280;57301;50.328;8.542;2023-11-21T07:18:15;98172.41;;;8.64;92.66
69971;BME280;57301;50.328;8.542;2023-11-21T07:20:42;98166.84;;;8.85;91.68
69971;BME280;57301;50.328;8.542;2023-11-21T07:23:08;98176.09;;;8.81;91.46
69971;BME280;57301;50.328;8.542;2023-11-21T07:25:35;98175.66;;;8.58;93.00
69971;BME280;57301;50.328;8.542;2023-11-21T07:28:02;98177.47;;;8.85;91.49
69971;BME280;57301;50.328;8.542;2023-11-21T07:30:29;98179.06;;;8.78;91.42
69971;BME280;57301;50.328;8.542;2023-11-21T07:32:56;98183.75;;;8.66;91.45
69971;BME280;57301;50.328;8.542;2023-11-21T07:35:22;98184.97;;;8.72;91.37
69971;BME280;57301;50.328;8.542;2023-11-21T07:37:49;98192.72;;;8.83;90.48
69971;BME280;57301;50.328;8.542;2023-11-21T07:40:15;98199.03;;;8.82;90.39
69971;BME280;57301;50.328;8.542;2023-11-21T07:42:43;98199.47;;;8.77;90.86
69971;BME280;57301;50.328;8.542;2023-11-21T07:45:09;98197.06;;;8.84;90.19
69971;BME280;57301;50.328;8.542;2023-11-21T07:47:36;98189.69;;;8.96;90.10
69971;BME280;57301;50.328;8.542;2023-11-21T07:50:03;98191.59;;;8.85;90.69
69971;BME280;57301;50.328;8.542;2023-11-21T07:52:30;98195.53;;;8.81;91.53
69971;BME280;57301;50.328;8.542;2023-11-21T07:54:57;98195.16;;;8.94;91.05
69971;BME280;57301;50.328;8.542;2023-11-21T07:57:24;98209.59;;;8.92;90.19
69971;BME280;57301;50.328;8.542;2023-11-21T07:59:50;98210.00;;;8.97;90.38
69971;BME280;57301;50.328;8.542;2023-11-21T08:02:20;98210.84;;;9.15;89.96
69971;BME280;57301;50.328;8.542;2023-11-21T08:04:47;98207.81;;;9.10;90.26
69971;BME280;57301;50.328;8.542;2023-11-21T08:07:17;98216.53;;;9.02;90.69
69971;BME280;57301;50.328;8.542;2023-11-21T08:09:43;98230.97;;;9.00;91.13
69971;BME280;57301;50.328;8.542;2023-11-21T08:12:10;98233.63;;;9.18;90.13
69971;BME280;57301;50.328;8.542;2023-11-21T08:14:37;98233.63;;;9.18;89.55
69971;BME280;57301;50.328;8.542;2023-11-21T08:17:05;98231.38;;;9.23;89.08
69971;BME280;57301;50.328;8.542;2023-11-21T08:19:33;98234.25;;;9.29;89.39
69971;BME280;57301;50.328;8.542;2023-11-21T08:21:59;98244.50;;;9.24;89.78
69971;BME280;57301;50.328;8.542;2023-11-21T08:24:26;98238.13;;;9.35;88.74
69971;BME280;57301;50.328;8.542;2023-11-21T08:26:54;98250.28;;;9.37;88.80
69971;BME280;57301;50.328;8.542;2023-11-21T08:29:20;98252.66;;;9.40;88.24
69971;BME280;57301;50.328;8.542;2023-11-21T08:31:48;98251.72;;;9.67;87.60
69971;BME280;57301;50.328;8.542;2023-11-21T08:34:14;98254.91;;;9.71;87.56
69971;BME280;57301;50.328;8.542;2023-11-21T08:36:45;98258.56;;;9.70;86.92
69971;BME280;57301;50.328;8.542;2023-11-21T08:39:12;98255.66;;;9.81;85.87
69971;BME280;57301;50.328;8.542;2023-11-21T08:41:39;98260.06;;;9.90;85.50
69971;BME280;57301;50.328;8.542;2023-11-21T08:44:06;98266.13;;;10.01;85.30
69971;BME280;57301;50.328;8.542;2023-11-21T08:46:33;98267.03;;;9.91;85.26
69971;BME280;57301;50.328;8.542;2023-11-21T08:49:03;98269.88;;;10.16;84.90
69971;BME280;57301;50.328;8.542;2023-11-21T08:51:30;98268.69;;;10.10;84.02
69971;BME280;57301;50.328;8.542;2023-11-21T08:53:56;98274.38;;;9.89;84.39
69971;BME280;57301;50.328;8.542;2023-11-21T08:56:26;98273.75;;;9.95;84.28
69971;BME280;57301;50.328;8.542;2023-11-21T08:58:53;98266.75;;;10.20;82.43
69971;BME280;57301;50.328;8.542;2023-11-21T09:01:19;98273.25;;;10.00;83.31
69971;BME280;57301;50.328;8.542;2023-11-21T09:03:47;98272.25;;;10.19;82.58
69971;BME280;57301;50.328;8.542;2023-11-21T09:06:14;98272.16;;;10.29;82.47
69971;BME280;57301;50.328;8.542;2023-11-21T09:08:40;98271.50;;;10.61;81.51
69971;BME280;57301;50.328;8.542;2023-11-21T09:11:08;98276.56;;;10.72;80.45
69971;BME280;57301;50.328;8.542;2023-11-21T09:13:35;98282.78;;;10.81;80.46
69971;BME280;57301;50.328;8.542;2023-11-21T09:16:01;98283.41;;;10.74;80.74
69971;BME280;57301;50.328;8.542;2023-11-21T09:18:28;98293.09;;;10.84;80.47
69971;BME280;57301;50.328;8.542;2023-11-21T09:20:55;98284.28;;;10.91;79.88
69971;BME280;57301;50.328;8.542;2023-11-21T09:23:21;98292.16;;;10.93;78.93
69971;BME280;57301;50.328;8.542;2023-11-21T09:25:48;98293.31;;;10.90;78.54
69971;BME280;57301;50.328;8.542;2023-11-21T09:28:16;98301.72;;;11.12;77.98
69971;BME280;57301;50.328;8.542;2023-11-21T09:30:43;98300.53;;;11.89;75.60
69971;BME280;57301;50.328;8.542;2023-11-21T09:33:10;98305.00;;;11.56;76.36
69971;BME280;57301;50.328;8.542;2023-11-21T09:35:37;98314.50;;;11.58;75.65
69971;BME280;57301;50.328;8.542;2023-11-21T09:38:04;98313.88;;;11.73;75.47
69971;BME280;57301;50.328;8.542;2023-11-21T09:40:37;98318.75;;;12.34;74.16
69971;BME280;57301;50.328;8.542;2023-11-21T09:43:09;98309.25;;;14.04;67.77
69971;BME280;57301;50.328;8.542;2023-11-21T09:45:57;98310.78;;;15.54;61.53
69971;BME280;57301;50.328;8.542;2023-11-21T09:48:25;98305.53;;;16.03;58.53
69971;BME280;57301;50.328;8.542;2023-11-21T09:50:53;98306.13;;;17.24;55.33
69971;BME280;57301;50.328;8.542;2023-11-21T09:53:21;98310.19;;;16.44;57.76
69971;BME280;57301;50.328;8.542;2023-11-21T09:55:51;98304.91;;;16.29;59.23
69971;BME280;57301;50.328;8.542;2023-11-21T09:58:19;98305.44;;;16.39;58.28
69971;BME280;57301;50.328;8.542;2023-11-21T10:00:49;98312.63;;;15.68;58.96
69971;BME280;57301;50.328;8.542;2023-11-21T10:03:15;98311.19;;;14.33;61.79
69971;BME280;57301;50.328;8.542;2023-11-21T10:05:44;98317.81;;;13.53;64.38
69971;BME280;57301;50.328;8.542;2023-11-21T10:08:13;98330.69;;;12.79;67.44
69971;BME280;57301;50.328;8.542;2023-11-21T10:10:43;98336.28;;;12.21;69.50
69971;BME280;57301;50.328;8.542;2023-11-21T10:13:15;98332.06;;;11.61;70.59
69971;BME280;57301;50.328;8.542;2023-11-21T10:15:49;98335.88;;;11.58;72.10
69971;BME280;57301;50.328;8.542;2023-11-21T10:18:16;98329.53;;;11.60;72.51
69971;BME280;57301;50.328;8.542;2023-11-21T10:20:43;98342.88;;;11.60;73.54
69971;BME280;57301;50.328;8.542;2023-11-21T10:23:13;98339.78;;;11.97;72.78
69971;BME280;57301;50.328;8.542;2023-11-21T10:25:42;98342.97;;;12.33;72.11
69971;BME280;57301;50.328;8.542;2023-11-21T10:28:09;98351.81;;;11.93;73.98
69971;BME280;57301;50.328;8.542;2023-11-21T10:30:38;98342.38;;;11.48;75.48
69971;BME280;57301;50.328;8.542;2023-11-21T10:33:05;98353.38;;;11.53;73.84
69971;BME280;57301;50.328;8.542;2023-11-21T10:38:08;98352.66;;;11.93;71.80
69971;BME280;57301;50.328;8.542;2023-11-21T10:40:40;98353.25;;;11.71;72.47
69971;BME280;57301;50.328;8.542;2023-11-21T10:43:09;98352.41;;;11.54;72.81
69971;BME280;57301;50.328;8.542;2023-11-21T10:45:37;98354.66;;;11.83;71.80
69971;BME280;57301;50.328;8.542;2023-11-21T10:48:10;98360.50;;;11.87;71.62
69971;BME280;57301;50.328;8.542;2023-11-21T10:50:38;98345.97;;;12.14;71.94
69971;BME280;57301;50.328;8.542;2023-11-21T10:53:08;98348.31;;;12.08;72.32
69971;BME280;57301;50.328;8.542;2023-11-21T10:55:35;98350.00;;;12.09;72.17
69971;BME280;57301;50.328;8.542;2023-11-21T10:58:03;98345.97;;;12.30;70.55
69971;BME280;57301;50.328;8.542;2023-11-21T11:00:32;98346.84;;;12.22;69.54
69971;BME280;57301;50.328;8.542;2023-11-21T11:02:59;98358.84;;;12.43;69.88
69971;BME280;57301;50.328;8.542;2023-11-21T11:05:28;98356.56;;;12.87;68.35
69971;BME280;57301;50.328;8.542;2023-11-21T11:08:06;98350.25;;;13.19;67.20
69971;BME280;57301;50.328;8.542;2023-11-21T11:10:34;98349.81;;;13.78;66.32
69971;BME280;57301;50.328;8.542;2023-11-21T11:13:01;98351.63;;;14.69;63.47
69971;BME280;57301;50.328;8.542;2023-11-21T11:15:28;98349.19;;;14.59;61.86
69971;BME280;57301;50.328;8.542;2023-11-21T11:17:55;98349.66;;;14.40;62.15
69971;BME280;57301;50.328;8.542;2023-11-21T11:20:37;98347.81;;;14.63;61.25
69971;BME280;57301;50.328;8.542;2023-11-21T11:23:30;98341.03;;;14.30;62.68
69971;BME280;57301;50.328;8.542;2023-11-21T11:29:14;98342.56;;;12.77;68.60
69971;BME280;57301;50.328;8.542;2023-11-21T11:34:28;98352.19;;;12.22;70.45
69971;BME280;57301;50.328;8.542;2023-11-21T11:37:04;98352.00;;;11.91;72.29
69971;BME280;57301;50.328;8.542;2023-11-21T11:39:41;98358.50;;;11.89;72.35
69971;BME280;57301;50.328;8.542;2023-11-21T11:42:14;98358.34;;;12.06;73.26
69971;BME280;57301;50.328;8.542;2023-11-21T11:50:08;98368.22;;;11.98;72.59
69971;BME280;57301;50.328;8.542;2023-11-21T11:52:45;98360.69;;;12.26;72.77
69971;BME280;57301;50.328;8.542;2023-11-21T11:55:13;98365.69;;;12.45;72.13
69971;BME280;57301;50.328;8.542;2023-11-21T11:57:41;98365.81;;;12.68;70.92
69971;BME280;57301;50.328;8.542;2023-11-21T12:00:19;98359.59;;;12.76;70.21
69971;BME280;57301;50.328;8.542;2023-11-21T12:02:49;98349.22;;;12.89;70.05
69971;BME280;57301;50.328;8.542;2023-11-21T12:05:17;98352.78;;;12.65;69.06
69971;BME280;57301;50.328;8.542;2023-11-21T12:07:52;98353.00;;;12.47;70.02
69971;BME280;57301;50.328;8.542;2023-11-21T12:10:23;98357.31;;;12.48;70.47
69971;BME280;57301;50.328;8.542;2023-11-21T12:12:52;98356.34;;;12.17;72.46
69971;BME280;57301;50.328;8.542;2023-11-21T12:15:19;98364.69;;;12.14;70.88
69971;BME280;57301;50.328;8.542;2023-11-21T12:17:46;98369.84;;;11.91;71.78
69971;BME280;57301;50.328;8.542;2023-11-21T12:20:13;98368.44;;;11.70;72.30
69971;BME280;57301;50.328;8.542;2023-11-21T12:22:43;98371.97;;;11.71;72.36
69971;BME280;57301;50.328;8.542;2023-11-21T12:25:10;98374.25;;;11.57;73.85
69971;BME280;57301;50.328;8.542;2023-11-21T12:27:46;98373.84;;;11.28;74.79
69971;BME280;57301;50.328;8.542;2023-11-21T12:30:13;98371.72;;;11.40;74.30
69971;BME280;57301;50.328;8.542;2023-11-21T12:32:40;98376.94;;;11.49;74.79
69971;BME280;57301;50.328;8.542;2023-11-21T12:35:10;98388.72;;;11.39;73.68
69971;BME280;57301;50.328;8.542;2023-11-21T12:37:40;98389.19;;;11.26;75.29
69971;BME280;57301;50.328;8.542;2023-11-21T12:40:10;98387.97;;;11.63;74.96
69971;BME280;57301;50.328;8.542;2023-11-21T12:42:42;98387.63;;;11.66;74.38
69971;BME280;57301;50.328;8.542;2023-11-21T12:45:10;98395.81;;;11.56;73.94
69971;BME280;57301;50.328;8.542;2023-11-21T12:47:44;98393.41;;;11.37;73.61
69971;BME280;57301;50.328;8.542;2023-11-21T12:50:11;98388.56;;;11.40;73.98
69971;BME280;57301;50.328;8.542;2023-11-21T12:52:44;98397.56;;;11.31;73.65
69971;BME280;57301;50.328;8.542;2023-11-21T12:55:16;98392.03;;;10.98;75.28
69971;BME280;57301;50.328;8.542;2023-11-21T12:57:48;98397.09;;;11.10;75.13
69971;BME280;57301;50.328;8.542;2023-11-21T13:00:18;98404.06;;;11.02;75.23
69971;BME280;57301;50.328;8.542;2023-11-21T13:02:55;98395.13;;;11.12;75.25
69971;BME280;57301;50.328;8.542;2023-11-21T13:05:36;98393.41;;;11.37;75.05
69971;BME280;57301;50.328;8.542;2023-11-21T13:08:06;98400.06;;;11.41;74.85
69971;BME280;57301;50.328;8.542;2023-11-21T13:10:35;98399.31;;;11.14;75.49
69971;BME280;57301;50.328;8.542;2023-11-21T13:13:06;98400.53;;;11.28;76.08
69971;BME280;57301;50.328;8.542;2023-11-21T13:15:46;98402.25;;;11.03;76.50
69971;BME280;57301;50.328;8.542;2023-11-21T13:18:14;98399.97;;;11.16;76.38
69971;BME280;57301;50.328;8.542;2023-11-21T13:20:40;98408.94;;;11.07;76.90
69971;BME280;57301;50.328;8.542;2023-11-21T13:23:08;98411.16;;;11.12;76.91
69971;BME280;57301;50.328;8.542;2023-11-21T13:25:35;98419.31;;;10.84;78.56